Bellemont, Arizona
Current Conditions -  °F | °C
As of 7:57 PM on Sunday 21 Dec 2014 (Local Time) from KFLG Reporting Station
Clear Clear  
Wind Chill: 39°   Ceiling: Unl
Heat Index: 43°   Visibility: 10mi
Dew Point: 30°   Wind: 6mph
Humidity: 60%   Direction: NA
Pressure: 30.11"   Gusts: NA
Location:  35.24°N, 111.83°W
Report Text: KFLG 220257Z AUTO VRB05KT 10SM CLR 06/M01 A3011 RMK AO2 SLP158 T00611011 50005 TSNO
Loading
Personal Weather Stations






























Interactive Weather Map New forecast layout! Learn more

10-Day Weather Forecast

Advertisements
Track Severe Weather on mobile